Time;durP1;ratioP1;P1;durP2;ratioP2;P2;SDS_P1;SDS_P2;PMS_P1;PMS_P2;Temp;Humidity;BMP_temperature;BMP_pressure;BME280_temperature;BME280_humidity;BME280_pressure;Samples;Min_cycle;Max_cycle;Signal;HPM_P1;HPM_P2
2023/11/18 00:01:33;;;;;;;9.13;3.97;;;;;;;;;;5083979;28;20024;-52
2023/11/18 00:03:59;;;;;;;9.13;3.65;;;;;;;;;;5084009;28;20316;-51
2023/11/18 00:06:26;;;;;;;9.13;4.00;;;;;;;;;;5083970;28;20267;-49
2023/11/18 00:08:53;;;;;;;15.02;4.00;;;;;;;;;;5084201;28;20036;-49
2023/11/18 00:11:19;;;;;;;9.93;3.85;;;;;;;;;;5084027;28;20035;-51
2023/11/18 00:13:46;;;;;;;11.25;3.40;;;;;;;;;;5084241;28;20016;-52
2023/11/18 00:16:15;;;;;;;5.95;3.60;;;;;;;;;;5083840;28;20079;-52
2023/11/18 00:18:42;;;;;;;5.95;3.17;;;;;;;;;;5084325;28;20028;-52
2023/11/18 00:21:09;;;;;;;6.60;3.47;;;;;;;;;;5083671;28;20044;-52
2023/11/18 00:23:36;;;;;;;14.75;3.60;;;;;;;;;;5084299;28;20048;-51
2023/11/18 00:26:02;;;;;;;5.35;2.85;;;;;;;;;;5083702;28;20057;-54
2023/11/18 00:28:29;;;;;;;8.02;3.25;;;;;;;;;;5084089;28;20020;-55
2023/11/18 00:30:57;;;;;;;9.13;3.45;;;;;;;;;;5083818;28;20039;-53
2023/11/18 00:33:23;;;;;;;4.80;2.80;;;;;;;;;;5084104;28;20021;-54
2023/11/18 00:35:50;;;;;;;5.03;3.00;;;;;;;;;;5087267;28;20265;-50
2023/11/18 00:38:18;;;;;;;6.43;3.13;;;;;;;;;;5088097;28;20216;-56
2023/11/18 00:40:44;;;;;;;10.90;3.45;;;;;;;;;;5087649;28;20033;-53
2023/11/18 00:43:11;;;;;;;11.40;3.40;;;;;;;;;;5086735;28;20044;-51
2023/11/18 00:45:43;;;;;;;7.20;3.05;;;;;;;;;;5086455;28;20025;-52
2023/11/18 00:48:09;;;;;;;;;;;;;;;;;;5087507;28;20033;-52
2023/11/18 00:50:36;;;;;;;6.80;3.20;;;;;;;;;;5087347;28;19905;-52
2023/11/18 00:53:03;;;;;;;5.10;2.97;;;;;;;;;;5087781;28;20040;-53
2023/11/18 00:55:29;;;;;;;7.97;3.03;;;;;;;;;;5087162;28;20047;-57
2023/11/18 00:57:56;;;;;;;7.00;2.83;;;;;;;;;;5087341;28;20308;-57
2023/11/18 01:00:22;;;;;;;8.60;3.03;;;;;;;;;;5091090;28;20024;-53
2023/11/18 01:02:49;;;;;;;5.97;2.70;;;;;;;;;;5107626;28;20028;-53
2023/11/18 01:05:16;;;;;;;5.05;2.58;;;;;;;;;;5107151;28;20023;-56
2023/11/18 01:07:43;;;;;;;9.07;3.15;;;;;;;;;;5107786;28;20227;-53
2023/11/18 01:10:10;;;;;;;5.20;2.40;;;;;;;;;;5107343;28;20032;-52
2023/11/18 01:12:37;;;;;;;5.05;2.67;;;;;;;;;;5107275;28;20023;-50
2023/11/18 01:15:04;;;;;;;4.30;3.03;;;;;;;;;;5106188;28;20035;-54
2023/11/18 01:17:31;;;;;;;7.28;2.60;;;;;;;;;;5107220;28;20077;-53
2023/11/18 01:19:58;;;;;;;6.38;2.90;;;;;;;;;;5106920;28;20016;-51
2023/11/18 01:22:25;;;;;;;8.85;3.35;;;;;;;;;;5107402;28;20338;-51
2023/11/18 01:24:51;;;;;;;5.60;3.00;;;;;;;;;;5106913;28;20035;-51
2023/11/18 01:27:19;;;;;;;6.18;3.40;;;;;;;;;;5107038;28;20028;-55
2023/11/18 01:29:49;;;;;;;8.85;2.90;;;;;;;;;;5107234;28;20027;-57
2023/11/18 01:32:17;;;;;;;4.78;2.90;;;;;;;;;;5106967;28;20020;-52
2023/11/18 01:34:49;;;;;;;5.15;2.88;;;;;;;;;;5106777;28;20031;-54
2023/11/18 01:37:16;;;;;;;16.70;3.67;;;;;;;;;;5106983;28;20065;-55
2023/11/18 01:39:43;;;;;;;8.50;3.63;;;;;;;;;;5100292;28;20363;-54
2023/11/18 01:42:11;;;;;;;6.00;3.58;;;;;;;;;;5092714;28;20227;-53
2023/11/18 01:44:38;;;;;;;7.93;4.50;;;;;;;;;;5086107;28;20079;-47
2023/11/18 01:47:05;;;;;;;10.60;4.25;;;;;;;;;;5085454;28;20212;-54
2023/11/18 01:49:33;;;;;;;6.70;4.35;;;;;;;;;;5086015;28;20340;-52
2023/11/18 01:52:01;;;;;;;9.20;4.03;;;;;;;;;;5086423;28;20192;-50
2023/11/18 01:54:28;;;;;;;6.70;3.65;;;;;;;;;;5086105;28;20028;-53
2023/11/18 01:56:55;;;;;;;6.20;4.30;;;;;;;;;;5086008;28;20288;-51
2023/11/18 01:59:21;;;;;;;8.88;3.85;;;;;;;;;;5089216;28;20051;-54
2023/11/18 02:01:49;;;;;;;7.22;4.15;;;;;;;;;;5095095;28;20051;-49
2023/11/18 02:04:19;;;;;;;7.05;3.78;;;;;;;;;;5085890;28;20017;-53
2023/11/18 02:06:47;;;;;;;6.22;3.45;;;;;;;;;;5086097;28;20062;-52
2023/11/18 02:09:17;;;;;;;5.03;3.45;;;;;;;;;;5096762;28;20039;-54
2023/11/18 02:12:12;;;;;;;7.13;3.35;;;;;;;;;;5085661;28;20046;-54
2023/11/18 02:14:40;;;;;;;6.18;3.30;;;;;;;;;;5081088;28;20157;-54
2023/11/18 02:17:09;;;;;;;5.25;2.83;;;;;;;;;;5090488;28;20032;-53
2023/11/18 02:19:36;;;;;;;16.75;3.20;;;;;;;;;;5093998;28;20087;-49
2023/11/18 02:22:02;;;;;;;7.38;2.90;;;;;;;;;;5090614;28;20040;-54
2023/11/18 02:24:40;;;;;;;8.50;3.08;;;;;;;;;;5103719;28;20035;-51
2023/11/18 02:27:11;;;;;;;3.92;2.63;;;;;;;;;;5089767;28;20023;-51
2023/11/18 02:29:40;;;;;;;7.90;2.97;;;;;;;;;;5090812;28;20024;-49
2023/11/18 02:32:23;;;;;;;4.75;2.78;;;;;;;;;;5094635;28;20029;-51
2023/11/18 02:34:51;;;;;;;;;;;;;;;;;;5085718;28;20225;-46
2023/11/18 02:37:18;;;;;;;4.63;3.05;;;;;;;;;;5085519;28;19927;-46
2023/11/18 02:39:47;;;;;;;4.25;2.85;;;;;;;;;;5089605;28;20069;-51
2023/11/18 02:42:14;;;;;;;3.63;2.45;;;;;;;;;;5097810;28;20028;-48
2023/11/18 02:44:41;;;;;;;5.43;2.80;;;;;;;;;;5089584;28;20273;-48
2023/11/18 02:47:08;;;;;;;3.28;2.90;;;;;;;;;;5085339;28;20092;-52
2023/11/18 02:49:37;;;;;;;6.25;2.70;;;;;;;;;;5084901;28;20033;-49
2023/11/18 02:52:05;;;;;;;5.15;2.78;;;;;;;;;;5085202;28;20193;-52
2023/11/18 02:54:31;;;;;;;5.25;3.00;;;;;;;;;;5084911;28;20028;-45
2023/11/18 02:56:58;;;;;;;4.47;2.85;;;;;;;;;;5084715;28;20029;-52
2023/11/18 02:59:25;;;;;;;6.07;3.13;;;;;;;;;;5084608;28;20020;-49
2023/11/18 03:01:54;;;;;;;5.72;2.95;;;;;;;;;;5084854;28;20045;-48
2023/11/18 03:04:23;;;;;;;6.05;2.80;;;;;;;;;;5084528;28;20039;-54
2023/11/18 03:06:50;;;;;;;4.10;2.75;;;;;;;;;;5084610;28;20016;-47
2023/11/18 03:09:18;;;;;;;5.93;2.63;;;;;;;;;;5084543;28;20033;-48
2023/11/18 03:11:45;;;;;;;6.05;2.70;;;;;;;;;;5092638;28;20032;-50
2023/11/18 03:14:12;;;;;;;5.50;3.08;;;;;;;;;;5086714;28;20020;-51
2023/11/18 03:16:39;;;;;;;6.10;2.63;;;;;;;;;;5084583;28;20036;-48
2023/11/18 03:19:06;;;;;;;5.30;2.70;;;;;;;;;;5084435;28;20342;-48
2023/11/18 03:21:33;;;;;;;6.45;2.58;;;;;;;;;;5084398;28;20079;-46
2023/11/18 03:24:00;;;;;;;6.07;2.60;;;;;;;;;;5102699;28;20040;-46
2023/11/18 03:26:26;;;;;;;3.83;2.35;;;;;;;;;;5104031;28;20055;-52
2023/11/18 03:28:53;;;;;;;3.75;2.47;;;;;;;;;;5103718;28;20111;-53
2023/11/18 03:31:19;;;;;;;5.35;2.53;;;;;;;;;;5104672;28;20028;-51
2023/11/18 03:33:46;;;;;;;3.85;2.85;;;;;;;;;;5104439;28;20020;-54
2023/11/18 03:36:13;;;;;;;5.55;2.85;;;;;;;;;;5102879;28;20020;-50
2023/11/18 03:38:40;;;;;;;7.82;2.60;;;;;;;;;;5103336;28;20019;-54
2023/11/18 03:41:08;;;;;;;7.25;2.35;;;;;;;;;;5103523;28;20063;-50
2023/11/18 03:43:35;;;;;;;7.13;2.72;;;;;;;;;;5104610;28;20232;-50
2023/11/18 03:46:01;;;;;;;4.35;2.30;;;;;;;;;;5104437;28;20036;-47
2023/11/18 03:48:28;;;;;;;9.20;2.40;;;;;;;;;;5097567;28;20036;-52
2023/11/18 03:50:54;;;;;;;4.70;2.67;;;;;;;;;;5091226;28;20336;-49
2023/11/18 03:53:21;;;;;;;3.70;2.30;;;;;;;;;;5084318;28;20102;-53
2023/11/18 03:55:48;;;;;;;3.63;2.30;;;;;;;;;;5083863;28;20228;-52
2023/11/18 03:58:14;;;;;;;5.97;2.58;;;;;;;;;;5084479;28;20024;-50
2023/11/18 04:00:42;;;;;;;3.38;2.00;;;;;;;;;;5083979;28;20036;-51
2023/11/18 04:03:09;;;;;;;6.72;2.55;;;;;;;;;;5084213;28;20086;-51
2023/11/18 04:05:38;;;;;;;5.18;2.25;;;;;;;;;;5083803;28;20032;-51
2023/11/18 04:08:06;;;;;;;4.10;2.42;;;;;;;;;;5083951;28;20248;-51
2023/11/18 04:10:32;;;;;;;4.57;2.75;;;;;;;;;;5083429;28;20038;-52
2023/11/18 04:12:59;;;;;;;4.90;2.30;;;;;;;;;;5083813;28;20023;-55
2023/11/18 04:15:26;;;;;;;6.10;2.90;;;;;;;;;;5083872;28;20044;-54
2023/11/18 04:17:53;;;;;;;4.80;2.38;;;;;;;;;;5083537;28;20032;-52
2023/11/18 04:20:20;;;;;;;7.10;2.67;;;;;;;;;;5083708;28;20368;-49
2023/11/18 04:22:46;;;;;;;8.18;2.67;;;;;;;;;;5083903;28;20040;-49
2023/11/18 04:25:13;;;;;;;6.63;2.53;;;;;;;;;;5083529;28;20324;-53
2023/11/18 04:27:40;;;;;;;7.20;2.55;;;;;;;;;;5084147;28;20027;-51
2023/11/18 04:30:08;;;;;;;8.50;2.65;;;;;;;;;;5083944;28;20082;-54
2023/11/18 04:32:35;;;;;;;4.70;2.50;;;;;;;;;;5083868;28;20301;-51
2023/11/18 04:35:06;;;;;;;7.45;2.60;;;;;;;;;;5083769;28;20071;-53
2023/11/18 04:37:36;;;;;;;6.65;2.35;;;;;;;;;;5083783;28;20177;-48
2023/11/18 04:40:03;;;;;;;5.05;2.40;;;;;;;;;;5083694;28;20042;-54
2023/11/18 04:42:30;;;;;;;4.88;2.35;;;;;;;;;;5083774;28;20024;-51
2023/11/18 04:44:59;;;;;;;4.88;2.33;;;;;;;;;;5083514;28;20055;-50
2023/11/18 04:47:26;;;;;;;5.82;2.38;;;;;;;;;;5083444;28;20017;-49
2023/11/18 04:49:53;;;;;;;5.78;2.67;;;;;;;;;;5083354;28;20032;-50
2023/11/18 04:52:20;;;;;;;5.65;2.92;;;;;;;;;;5098512;28;20047;-50
2023/11/18 04:54:50;;;;;;;5.00;3.08;;;;;;;;;;5088849;28;20255;-49
2023/11/18 04:57:17;;;;;;;6.78;3.10;;;;;;;;;;5083867;28;20032;-54
2023/11/18 04:59:43;;;;;;;5.30;3.28;;;;;;;;;;5083535;28;20289;-50
2023/11/18 05:02:10;;;;;;;3.83;2.78;;;;;;;;;;5083339;28;20043;-46
2023/11/18 05:04:37;;;;;;;8.55;2.63;;;;;;;;;;5083487;28;20051;-53
2023/11/18 05:07:04;;;;;;;3.55;2.53;;;;;;;;;;5083450;28;20058;-47
2023/11/18 05:09:31;;;;;;;4.55;2.78;;;;;;;;;;5083605;28;20100;-51
2023/11/18 05:11:59;;;;;;;5.75;2.70;;;;;;;;;;5083623;28;20080;-54
2023/11/18 05:14:26;;;;;;;6.30;2.70;;;;;;;;;;5083492;28;20025;-53
2023/11/18 05:16:53;;;;;;;5.10;2.90;;;;;;;;;;5083287;28;20032;-49
2023/11/18 05:19:20;;;;;;;5.93;2.53;;;;;;;;;;5083371;28;20025;-52
2023/11/18 05:21:49;;;;;;;4.88;2.90;;;;;;;;;;5085417;28;20033;-47
2023/11/18 05:24:16;;;;;;;6.35;2.97;;;;;;;;;;5086618;28;20275;-52
2023/11/18 05:26:42;;;;;;;6.43;2.90;;;;;;;;;;5086634;28;20054;-47
2023/11/18 05:29:09;;;;;;;9.10;2.85;;;;;;;;;;5086660;28;20020;-52
2023/11/18 05:31:37;;;;;;;6.40;2.75;;;;;;;;;;5086515;28;20029;-52
2023/11/18 05:34:04;;;;;;;7.28;2.78;;;;;;;;;;5086996;28;20047;-50
2023/11/18 05:36:36;;;;;;;4.30;2.40;;;;;;;;;;5086349;28;20020;-50
2023/11/18 05:39:05;;;;;;;5.95;2.60;;;;;;;;;;5086613;28;20095;-50
2023/11/18 05:41:32;;;;;;;3.80;2.17;;;;;;;;;;5086560;28;20070;-48
2023/11/18 05:43:58;;;;;;;5.93;2.40;;;;;;;;;;5086155;28;20113;-47
2023/11/18 05:46:29;;;;;;;3.88;2.25;;;;;;;;;;5086258;28;20197;-49
2023/11/18 05:48:56;;;;;;;4.20;2.30;;;;;;;;;;5088996;28;20032;-46
2023/11/18 05:51:24;;;;;;;4.50;2.15;;;;;;;;;;5100935;28;20052;-48
2023/11/18 05:53:51;;;;;;;4.57;2.13;;;;;;;;;;5092588;28;20435;-47
2023/11/18 05:56:18;;;;;;;3.90;2.00;;;;;;;;;;5086455;28;20041;-51
2023/11/18 05:58:45;;;;;;;7.72;2.42;;;;;;;;;;5086712;28;20056;-49
2023/11/18 06:01:13;;;;;;;5.75;1.92;;;;;;;;;;5086245;28;20028;-51
2023/11/18 06:03:40;;;;;;;4.15;2.20;;;;;;;;;;5086612;28;20028;-47
2023/11/18 06:06:07;;;;;;;3.75;2.17;;;;;;;;;;5085758;28;20240;-48
2023/11/18 06:08:43;;;;;;;5.97;2.50;;;;;;;;;;5086346;28;20025;-54
2023/11/18 06:11:14;;;;;;;3.55;2.10;;;;;;;;;;5090010;28;20040;-48
2023/11/18 06:13:42;;;;;;;4.47;2.00;;;;;;;;;;5106601;28;20149;-49
2023/11/18 06:16:09;;;;;;;5.07;1.70;;;;;;;;;;5106456;28;20040;-47
2023/11/18 06:18:36;;;;;;;4.20;2.17;;;;;;;;;;5106705;28;20027;-50
2023/11/18 06:21:03;;;;;;;3.75;2.08;;;;;;;;;;5106020;28;20334;-52
2023/11/18 06:23:32;;;;;;;4.95;2.25;;;;;;;;;;5106639;28;20028;-47
2023/11/18 06:26:00;;;;;;;5.72;2.20;;;;;;;;;;5105799;28;20035;-50
2023/11/18 06:28:28;;;;;;;5.20;2.33;;;;;;;;;;5106012;28;20087;-47
2023/11/18 06:30:55;;;;;;;4.50;2.40;;;;;;;;;;5105650;28;20024;-46
2023/11/18 06:33:27;;;;;;;7.38;2.65;;;;;;;;;;5105599;28;20016;-48
2023/11/18 06:35:56;;;;;;;5.50;2.28;;;;;;;;;;5105616;28;20350;-49
2023/11/18 06:38:24;;;;;;;4.30;2.40;;;;;;;;;;5105987;28;20032;-55
2023/11/18 06:40:52;;;;;;;4.25;2.45;;;;;;;;;;5105672;28;20262;-55
2023/11/18 06:43:20;;;;;;;8.05;3.45;;;;;;;;;;5105487;28;20263;-53
2023/11/18 06:45:48;;;;;;;7.75;3.50;;;;;;;;;;5105549;28;20040;-46
2023/11/18 06:48:15;;;;;;;5.00;2.85;;;;;;;;;;5105208;28;20023;-46
2023/11/18 06:50:44;;;;;;;5.55;2.63;;;;;;;;;;5105548;28;20046;-49
2023/11/18 06:53:11;;;;;;;7.78;2.67;;;;;;;;;;5105764;28;20028;-47
2023/11/18 06:55:38;;;;;;;3.70;2.17;;;;;;;;;;5105134;28;20232;-53
2023/11/18 06:58:04;;;;;;;4.50;2.17;;;;;;;;;;5105669;28;20028;-48
2023/11/18 07:00:32;;;;;;;4.55;2.13;;;;;;;;;;5105147;28;20046;-46
2023/11/18 07:03:01;;;;;;;3.63;1.95;;;;;;;;;;5105338;28;20196;-46
2023/11/18 07:05:28;;;;;;;4.72;2.25;;;;;;;;;;5104882;28;20028;-45
2023/11/18 07:07:55;;;;;;;4.78;2.03;;;;;;;;;;5105399;28;20042;-46
2023/11/18 07:10:21;;;;;;;2.47;2.22;;;;;;;;;;5104995;28;20057;-48
2023/11/18 07:12:48;;;;;;;5.88;2.13;;;;;;;;;;5105415;28;20200;-50
2023/11/18 07:15:15;;;;;;;5.30;2.10;;;;;;;;;;5103003;28;20032;-48
2023/11/18 07:17:43;;;;;;;4.22;2.28;;;;;;;;;;5105255;28;20058;-51
2023/11/18 07:20:12;;;;;;;6.35;2.55;;;;;;;;;;5105151;28;20426;-47
2023/11/18 07:22:39;;;;;;;5.25;1.65;;;;;;;;;;5103697;28;20365;-52
2023/11/18 07:25:09;;;;;;;6.85;2.10;;;;;;;;;;5104691;28;20035;-47
2023/11/18 07:27:37;;;;;;;7.30;1.98;;;;;;;;;;5104963;28;20023;-47
2023/11/18 07:30:10;;;;;;;7.00;2.45;;;;;;;;;;5104835;28;20027;-50
2023/11/18 07:32:38;;;;;;;4.13;2.10;;;;;;;;;;5104824;28;20031;-45
2023/11/18 07:35:08;;;;;;;2.72;1.98;;;;;;;;;;5100686;28;20292;-45
2023/11/18 07:37:35;;;;;;;4.00;2.10;;;;;;;;;;5097893;28;20028;-47
2023/11/18 07:40:02;;;;;;;5.55;1.77;;;;;;;;;;5087772;28;20031;-50
2023/11/18 07:42:30;;;;;;;3.38;2.00;;;;;;;;;;5104675;28;20305;-44
2023/11/18 07:44:57;;;;;;;5.70;2.10;;;;;;;;;;5103522;28;20036;-48
2023/11/18 07:47:23;;;;;;;4.97;2.22;;;;;;;;;;5104455;28;20058;-47
2023/11/18 07:49:50;;;;;;;4.65;2.40;;;;;;;;;;5104465;28;20091;-46
2023/11/18 07:52:16;;;;;;;5.32;2.40;;;;;;;;;;5104400;28;20095;-49
2023/11/18 07:54:43;;;;;;;4.28;2.50;;;;;;;;;;5105052;28;20020;-46
2023/11/18 07:57:11;;;;;;;3.50;2.30;;;;;;;;;;5104633;28;20027;-51
2023/11/18 07:59:37;;;;;;;4.30;2.55;;;;;;;;;;5104132;28;20040;-47
2023/11/18 08:02:09;;;;;;;4.30;2.60;;;;;;;;;;5104157;28;20067;-46
2023/11/18 08:04:35;;;;;;;4.00;2.35;;;;;;;;;;5104125;28;20106;-45
2023/11/18 08:07:04;;;;;;;4.93;2.20;;;;;;;;;;5104201;28;20032;-45
2023/11/18 08:09:31;;;;;;;2.53;2.00;;;;;;;;;;5104174;28;20031;-48
2023/11/18 08:11:58;;;;;;;3.83;2.60;;;;;;;;;;5104472;28;20043;-47
2023/11/18 08:14:25;;;;;;;5.07;2.28;;;;;;;;;;5104218;28;20048;-51
2023/11/18 08:16:52;;;;;;;6.45;2.47;;;;;;;;;;5104127;28;20075;-48
2023/11/18 08:19:19;;;;;;;4.72;2.58;;;;;;;;;;5104137;28;20332;-46
2023/11/18 08:21:46;;;;;;;4.70;2.40;;;;;;;;;;5104162;28;20297;-45
2023/11/18 08:24:12;;;;;;;3.50;2.47;;;;;;;;;;5103826;28;20031;-44
2023/11/18 08:26:39;;;;;;;4.50;2.40;;;;;;;;;;5103810;28;20054;-51
2023/11/18 08:29:06;;;;;;;5.93;2.40;;;;;;;;;;5104008;28;20052;-46
2023/11/18 08:31:33;;;;;;;2.38;2.15;;;;;;;;;;5103980;28;20121;-47
2023/11/18 08:34:00;;;;;;;8.57;2.40;;;;;;;;;;5104072;28;20138;-48
2023/11/18 08:36:27;;;;;;;9.18;2.55;;;;;;;;;;5103776;28;20031;-51
2023/11/18 08:38:56;;;;;;;5.97;2.50;;;;;;;;;;5103744;28;20024;-46
2023/11/18 08:41:22;;;;;;;4.88;2.25;;;;;;;;;;5103991;28;20032;-45
2023/11/18 08:43:49;;;;;;;4.68;2.10;;;;;;;;;;5104116;28;20235;-47
2023/11/18 08:46:16;;;;;;;7.90;2.40;;;;;;;;;;5103591;28;20316;-50
2023/11/18 08:48:44;;;;;;;3.58;2.28;;;;;;;;;;5104235;28;20036;-46
2023/11/18 08:51:12;;;;;;;5.03;2.35;;;;;;;;;;5103647;28;20091;-45
2023/11/18 08:53:42;;;;;;;9.88;2.30;;;;;;;;;;5104032;28;20015;-47
2023/11/18 08:56:15;;;;;;;4.53;2.60;;;;;;;;;;5106521;28;20099;-45
2023/11/18 08:58:44;;;;;;;5.15;2.10;;;;;;;;;;5108058;28;20051;-47
2023/11/18 09:01:14;;;;;;;4.47;2.30;;;;;;;;;;5107839;28;20058;-45
2023/11/18 09:03:48;;;;;;;5.05;2.55;;;;;;;;;;5108031;28;20062;-44
2023/11/18 09:06:19;;;;;;;4.28;2.25;;;;;;;;;;5107243;28;20043;-45
2023/11/18 09:08:52;;;;;;;5.18;2.40;;;;;;;;;;5107835;28;20095;-44
2023/11/18 09:11:19;;;;;;;4.28;2.15;;;;;;;;;;5107463;28;20236;-46
2023/11/18 09:13:49;;;;;;;5.75;2.40;;;;;;;;;;5107732;28;20024;-43
2023/11/18 09:16:15;;;;;;;3.35;2.10;;;;;;;;;;5107656;28;20193;-52
2023/11/18 09:18:44;;;;;;;4.00;2.15;;;;;;;;;;5107139;28;20231;-52
2023/11/18 09:21:14;;;;;;;4.80;2.38;;;;;;;;;;5107238;28;20188;-46
2023/11/18 09:23:42;;;;;;;5.00;2.33;;;;;;;;;;5107834;28;20027;-47
2023/11/18 09:26:10;;;;;;;4.78;2.33;;;;;;;;;;5107232;28;20024;-50
2023/11/18 09:28:37;;;;;;;5.05;2.65;;;;;;;;;;5107651;28;20069;-47
2023/11/18 09:31:11;;;;;;;6.43;3.88;;;;;;;;;;5107014;28;20020;-44
2023/11/18 09:33:39;;;;;;;7.07;4.68;;;;;;;;;;5107227;28;20066;-45
2023/11/18 09:36:12;;;;;;;9.40;5.90;;;;;;;;;;5106780;28;20035;-48
2023/11/18 09:38:42;;;;;;;12.63;7.30;;;;;;;;;;5107289;28;20024;-48
2023/11/18 09:41:12;;;;;;;11.13;6.85;;;;;;;;;;5107061;28;20103;-51
2023/11/18 09:43:46;;;;;;;8.77;4.95;;;;;;;;;;5107022;28;20044;-47
2023/11/18 09:46:14;;;;;;;8.10;4.40;;;;;;;;;;5106486;28;20277;-48
2023/11/18 09:48:49;;;;;;;10.43;4.03;;;;;;;;;;5107518;28;20300;-48
2023/11/18 09:51:23;;;;;;;5.55;3.83;;;;;;;;;;5106716;28;20036;-47
2023/11/18 09:53:52;;;;;;;7.32;3.90;;;;;;;;;;5107072;28;20274;-46
2023/11/18 09:56:45;;;;;;;9.77;3.92;;;;;;;;;;5106506;28;20099;-51
2023/11/18 09:59:19;;;;;;;8.90;4.32;;;;;;;;;;5106556;28;20028;-46
2023/11/18 10:01:53;;;;;;;7.65;4.05;;;;;;;;;;5106171;28;20259;-47
2023/11/18 10:04:20;;;;;;;9.15;4.40;;;;;;;;;;5106307;28;20035;-46
2023/11/18 10:06:49;;;;;;;10.32;4.00;;;;;;;;;;5105488;28;20059;-53
2023/11/18 10:09:17;;;;;;;11.73;4.50;;;;;;;;;;5106719;28;20170;-50
2023/11/18 10:11:47;;;;;;;7.45;3.50;;;;;;;;;;5106181;28;20028;-44
2023/11/18 10:14:17;;;;;;;8.02;3.60;;;;;;;;;;5106170;28;20039;-45
2023/11/18 10:16:47;;;;;;;6.32;3.28;;;;;;;;;;5106161;28;20016;-46
2023/11/18 10:19:17;;;;;;;6.28;3.33;;;;;;;;;;5101720;28;20032;-46
2023/11/18 10:21:48;;;;;;;8.65;3.42;;;;;;;;;;5096527;28;20028;-50
2023/11/18 10:24:19;;;;;;;5.57;2.97;;;;;;;;;;5096949;28;20197;-46
2023/11/18 10:26:47;;;;;;;8.48;3.35;;;;;;;;;;5106259;28;20284;-47
2023/11/18 10:29:18;;;;;;;7.07;3.42;;;;;;;;;;5106090;28;20028;-46
2023/11/18 10:31:45;;;;;;;6.65;3.05;;;;;;;;;;5105828;28;20031;-46
2023/11/18 10:34:15;;;;;;;8.30;3.70;;;;;;;;;;5105991;28;20204;-49
2023/11/18 10:36:43;;;;;;;8.07;3.38;;;;;;;;;;5105527;28;20036;-46
2023/11/18 10:39:16;;;;;;;6.22;3.20;;;;;;;;;;5105622;28;20074;-45
2023/11/18 10:41:47;;;;;;;7.97;2.85;;;;;;;;;;5099156;28;20027;-44
2023/11/18 10:44:14;;;;;;;9.48;3.25;;;;;;;;;;5093760;28;20170;-45
2023/11/18 10:46:54;;;;;;;6.78;3.40;;;;;;;;;;5103855;28;20031;-44
2023/11/18 10:49:21;;;;;;;7.07;3.65;;;;;;;;;;5105327;28;20028;-45
2023/11/18 10:51:48;;;;;;;5.18;3.05;;;;;;;;;;5105708;28;20032;-47
2023/11/18 10:54:17;;;;;;;9.52;3.63;;;;;;;;;;5105425;28;20023;-51
2023/11/18 10:56:50;;;;;;;6.85;3.25;;;;;;;;;;5092698;28;20032;-45
2023/11/18 10:59:18;;;;;;;7.22;3.25;;;;;;;;;;5104265;28;20024;-51
2023/11/18 11:01:48;;;;;;;5.78;3.50;;;;;;;;;;5094289;28;20028;-45
2023/11/18 11:04:20;;;;;;;4.70;3.00;;;;;;;;;;5101501;28;20039;-51
2023/11/18 11:06:52;;;;;;;;;;;;;;;;;;5101954;28;20024;-49
2023/11/18 11:09:24;;;;;;;8.45;3.15;;;;;;;;;;5086216;28;19908;-47
2023/11/18 11:11:55;;;;;;;7.95;3.10;;;;;;;;;;5084748;28;20032;-51
2023/11/18 11:14:24;;;;;;;5.55;2.92;;;;;;;;;;5084722;28;20212;-47
2023/11/18 11:16:55;;;;;;;9.05;3.13;;;;;;;;;;5095099;28;20036;-47
2023/11/18 11:19:37;;;;;;;7.90;3.22;;;;;;;;;;5097962;28;20033;-49
2023/11/18 11:22:05;;;;;;;;;;;;;;;;;;5094803;28;20028;-49
2023/11/18 11:24:42;;;;;;;6.38;3.30;;;;;;;;;;5086975;28;19912;-48
2023/11/18 11:27:18;;;;;;;7.30;3.17;;;;;;;;;;5103267;28;20087;-49
2023/11/18 11:29:52;;;;;;;7.90;2.95;;;;;;;;;;5103793;28;20032;-50
2023/11/18 11:32:38;;;;;;;10.27;3.35;;;;;;;;;;5103034;28;20024;-55
2023/11/18 11:35:08;;;;;;;7.22;3.40;;;;;;;;;;5102823;28;20044;-55
2023/11/18 11:37:34;;;;;;;7.13;3.25;;;;;;;;;;5102995;28;20317;-59
2023/11/18 11:40:04;;;;;;;9.60;3.97;;;;;;;;;;5102738;28;20016;-47
2023/11/18 11:42:32;;;;;;;8.07;3.38;;;;;;;;;;5096220;28;20035;-51
2023/11/18 11:44:59;;;;;;;12.40;3.60;;;;;;;;;;5103766;28;20051;-50
2023/11/18 11:47:28;;;;;;;7.97;3.85;;;;;;;;;;5104224;28;20023;-52
2023/11/18 11:50:10;;;;;;;7.75;4.20;;;;;;;;;;5104343;28;20235;-51
2023/11/18 11:52:38;;;;;;;7.15;3.15;;;;;;;;;;5102841;28;20312;-51
2023/11/18 11:55:13;;;;;;;7.40;3.42;;;;;;;;;;5103596;28;20035;-51
2023/11/18 11:57:42;;;;;;;10.40;3.85;;;;;;;;;;5104403;28;20035;-50
2023/11/18 12:00:16;;;;;;;6.32;3.08;;;;;;;;;;5104535;28;20539;-53
2023/11/18 12:02:54;;;;;;;5.68;2.80;;;;;;;;;;5103005;28;20104;-52
2023/11/18 12:05:26;;;;;;;6.13;3.38;;;;;;;;;;5102155;28;20332;-48
2023/11/18 12:07:56;;;;;;;5.80;3.10;;;;;;;;;;5102830;28;20092;-51
2023/11/18 12:10:32;;;;;;;5.63;2.95;;;;;;;;;;5102342;28;20030;-48
2023/11/18 12:13:15;;;;;;;7.95;3.45;;;;;;;;;;5102461;28;20039;-52
2023/11/18 12:15:57;;;;;;;7.15;3.45;;;;;;;;;;5102415;28;20031;-51
2023/11/18 12:18:24;;;;;;;10.18;3.53;;;;;;;;;;5104906;28;20036;-52
2023/11/18 12:20:57;;;;;;;4.22;2.90;;;;;;;;;;5104461;28;20063;-49
2023/11/18 12:23:24;;;;;;;5.40;3.05;;;;;;;;;;5105245;28;20066;-51
2023/11/18 12:26:02;;;;;;;5.18;3.20;;;;;;;;;;5104077;28;20263;-51
2023/11/18 12:28:45;;;;;;;7.22;3.17;;;;;;;;;;5104816;28;20044;-52
2023/11/18 12:31:17;;;;;;;5.03;3.00;;;;;;;;;;5107353;28;20035;-51
2023/11/18 12:33:53;;;;;;;4.72;3.08;;;;;;;;;;5108009;28;20016;-55
2023/11/18 12:36:39;;;;;;;6.47;3.03;;;;;;;;;;5108163;28;20036;-50
2023/11/18 12:39:13;;;;;;;7.03;2.97;;;;;;;;;;5108199;28;20200;-51
2023/11/18 12:41:40;;;;;;;3.38;2.83;;;;;;;;;;5108230;28;20055;-48
2023/11/18 12:44:23;;;;;;;7.78;3.10;;;;;;;;;;5107632;28;20055;-51
2023/11/18 12:46:53;;;;;;;7.43;3.08;;;;;;;;;;5108005;28;20363;-52
2023/11/18 12:49:23;;;;;;;4.10;2.90;;;;;;;;;;5107813;28;20045;-53
2023/11/18 12:51:51;;;;;;;5.55;3.03;;;;;;;;;;5107870;28;20079;-49
2023/11/18 12:54:19;;;;;;;5.78;3.13;;;;;;;;;;5107822;28;20035;-51
2023/11/18 12:56:49;;;;;;;7.63;3.10;;;;;;;;;;5107588;28;20365;-52
2023/11/18 12:59:18;;;;;;;7.80;3.08;;;;;;;;;;5107564;28;20036;-52
2023/11/18 13:01:53;;;;;;;6.35;3.50;;;;;;;;;;5107526;28;20039;-52
2023/11/18 13:04:19;;;;;;;6.40;3.40;;;;;;;;;;5107470;28;20286;-55
2023/11/18 13:06:47;;;;;;;5.65;3.00;;;;;;;;;;5108182;28;21781;-52
2023/11/18 13:09:24;;;;;;;6.15;2.83;;;;;;;;;;5107705;28;20024;-51
2023/11/18 13:11:53;;;;;;;4.35;3.03;;;;;;;;;;5107495;28;20012;-53
2023/11/18 13:14:19;;;;;;;6.68;2.95;;;;;;;;;;5107480;28;20255;-54
2023/11/18 13:16:50;;;;;;;3.78;2.85;;;;;;;;;;5107223;28;20196;-54
2023/11/18 13:19:24;;;;;;;4.85;2.83;;;;;;;;;;5107419;28;20027;-53
2023/11/18 13:21:50;;;;;;;4.45;2.97;;;;;;;;;;5107446;28;20091;-53
2023/11/18 13:24:17;;;;;;;3.80;2.67;;;;;;;;;;5107337;28;20350;-54
2023/11/18 13:26:44;;;;;;;5.13;2.92;;;;;;;;;;5107566;28;20031;-54
2023/11/18 13:29:10;;;;;;;5.05;2.60;;;;;;;;;;5107539;28;20024;-51
2023/11/18 13:31:38;;;;;;;4.78;2.35;;;;;;;;;;5107440;28;20249;-52
2023/11/18 13:34:07;;;;;;;3.38;2.40;;;;;;;;;;5107512;28;20317;-53
2023/11/18 13:36:34;;;;;;;4.25;2.50;;;;;;;;;;5107520;28;20028;-50
2023/11/18 13:39:00;;;;;;;4.88;2.70;;;;;;;;;;5107495;28;20035;-53
2023/11/18 13:41:31;;;;;;;2.85;2.30;;;;;;;;;;5106270;28;20095;-52
2023/11/18 13:43:58;;;;;;;3.50;2.50;;;;;;;;;;5106873;28;20052;-50
2023/11/18 13:46:25;;;;;;;3.22;2.53;;;;;;;;;;5107270;28;20032;-53
2023/11/18 13:48:54;;;;;;;4.78;2.40;;;;;;;;;;5107038;28;20028;-53
2023/11/18 13:51:22;;;;;;;4.03;2.72;;;;;;;;;;5106616;28;20039;-49
2023/11/18 13:53:48;;;;;;;3.83;2.60;;;;;;;;;;5107698;28;20023;-51
2023/11/18 13:56:15;;;;;;;4.53;2.92;;;;;;;;;;5107207;28;20063;-54
2023/11/18 13:58:45;;;;;;;4.35;3.00;;;;;;;;;;5107773;28;20027;-53
2023/11/18 14:01:16;;;;;;;7.13;3.28;;;;;;;;;;5106684;28;20036;-52
2023/11/18 14:03:43;;;;;;;4.50;2.78;;;;;;;;;;5107293;28;20035;-52
2023/11/18 14:06:11;;;;;;;7.07;2.80;;;;;;;;;;5106334;28;20024;-50
2023/11/18 14:08:38;;;;;;;4.85;3.00;;;;;;;;;;5106984;28;20133;-51
2023/11/18 14:11:06;;;;;;;6.32;2.90;;;;;;;;;;5106702;28;20036;-51
2023/11/18 14:13:34;;;;;;;6.28;3.08;;;;;;;;;;5107328;28;20030;-53
2023/11/18 14:16:01;;;;;;;5.70;2.70;;;;;;;;;;5106707;28;20028;-52
2023/11/18 14:18:29;;;;;;;5.85;3.00;;;;;;;;;;5106092;28;20092;-50
2023/11/18 14:20:57;;;;;;;4.40;2.97;;;;;;;;;;5106216;28;20358;-51
2023/11/18 14:23:25;;;;;;;4.65;3.00;;;;;;;;;;5106669;28;20051;-48
2023/11/18 14:25:51;;;;;;;3.53;2.75;;;;;;;;;;5106130;28;20040;-50
2023/11/18 14:28:18;;;;;;;4.28;2.90;;;;;;;;;;5106592;28;20020;-49
2023/11/18 14:30:45;;;;;;;4.20;3.08;;;;;;;;;;5106269;28;20093;-56
2023/11/18 14:33:13;;;;;;;4.00;2.75;;;;;;;;;;5104988;28;20036;-55
2023/11/18 14:35:40;;;;;;;5.10;3.05;;;;;;;;;;5105826;28;20024;-54
2023/11/18 14:38:08;;;;;;;5.57;2.90;;;;;;;;;;5106206;28;20016;-50
2023/11/18 14:40:35;;;;;;;6.35;2.78;;;;;;;;;;5105724;28;20036;-51
2023/11/18 14:43:02;;;;;;;2.78;2.53;;;;;;;;;;5105860;28;20024;-52
2023/11/18 14:45:28;;;;;;;4.90;2.70;;;;;;;;;;5105561;28;20243;-53
2023/11/18 14:47:55;;;;;;;4.35;3.20;;;;;;;;;;5106039;28;20189;-52
2023/11/18 14:50:23;;;;;;;6.35;5.60;;;;;;;;;;5105331;28;20182;-50
2023/11/18 14:52:51;;;;;;;10.73;8.27;;;;;;;;;;5105530;28;20029;-52